Time;durP1;ratioP1;P1;durP2;ratioP2;P2;SDS_P1;SDS_P2;PMS_P1;PMS_P2;Temp;Humidity;BMP_temperature;BMP_pressure;BME280_temperature;BME280_humidity;BME280_pressure;Samples;Min_cycle;Max_cycle;Signal;HPM_P1;HPM_P2
2022/10/23 00:07:36;;;;;;;0.98;0.70;;;20.00;56.50;;;;;;20618281;28;20392;-73
2022/10/23 00:17:42;;;;;;;1.10;0.60;;;20.00;56.60;;;;;;20618223;28;20496;-74
2022/10/23 00:27:43;;;;;;;0.57;0.57;;;19.90;56.60;;;;;;20607794;28;20605;-73
2022/10/23 00:37:44;;;;;;;1.67;0.70;;;19.90;56.70;;;;;;20610536;28;20108;-74
2022/10/23 00:47:44;;;;;;;0.95;0.60;;;19.90;56.70;;;;;;20592319;28;20038;-74
2022/10/23 00:57:46;;;;;;;1.43;0.90;;;19.90;56.80;;;;;;20605974;28;20038;-74
2022/10/23 01:08:11;;;;;;;0.68;0.65;;;19.90;56.80;;;;;;20635905;28;20298;-74
2022/10/23 01:18:25;;;;;;;1.20;0.70;;;19.80;56.80;;;;;;20605476;28;20045;-74
2022/10/23 01:28:33;;;;;;;0.88;0.70;;;19.80;56.80;;;;;;20595870;28;20082;-74
2022/10/23 01:38:40;;;;;;;1.40;0.80;;;19.80;56.90;;;;;;20587990;28;20033;-73
2022/10/23 01:48:52;;;;;;;2.10;0.73;;;19.80;56.90;;;;;;20578037;28;20043;-73
2022/10/23 01:58:54;;;;;;;1.45;0.90;;;19.70;56.90;;;;;;20963897;23;20088;-74
2022/10/23 02:08:55;;;;;;;0.63;0.45;;;19.70;57.00;;;;;;20767436;28;20046;-74
2022/10/23 02:19:16;;;;;;;0.73;0.60;;;19.70;57.00;;;;;;20742766;28;20069;-74
2022/10/23 02:29:37;;;;;;;0.75;0.73;;;19.60;57.00;;;;;;20767836;28;20059;-74
2022/10/23 02:39:39;;;;;;;1.23;0.82;;;19.60;57.00;;;;;;20788355;28;20033;-74
2022/10/23 02:49:57;;;;;;;0.90;0.63;;;19.60;57.10;;;;;;20765123;28;20075;-73
2022/10/23 03:00:06;;;;;;;0.85;0.50;;;19.60;57.10;;;;;;20800736;28;20063;-75
2022/10/23 03:10:07;;;;;;;1.33;0.80;;;19.50;57.10;;;;;;20762141;28;20376;-75
2022/10/23 03:20:08;;;;;;;2.75;0.80;;;19.60;57.20;;;;;;20799097;28;20037;-74
2022/10/23 03:30:10;;;;;;;1.17;0.70;;;19.50;57.20;;;;;;20806708;28;20135;-75
2022/10/23 03:40:13;;;;;;;1.02;0.68;;;19.50;57.20;;;;;;20773110;28;20060;-74
2022/10/23 03:50:14;;;;;;;1.88;0.65;;;19.50;57.20;;;;;;20772565;28;20066;-73
2022/10/23 04:00:17;;;;;;;1.23;0.65;;;19.50;57.20;;;;;;20807348;28;20049;-77
2022/10/23 04:10:19;;;;;;;0.80;0.52;;;19.50;57.20;;;;;;20797752;28;20050;-74
2022/10/23 04:20:20;;;;;;;0.68;0.60;;;19.50;57.20;;;;;;20772514;28;20041;-74
2022/10/23 04:30:20;;;;;;;1.35;0.75;;;19.40;57.20;;;;;;20738223;28;20046;-74
2022/10/23 04:40:21;;;;;;;0.80;0.50;;;19.40;57.20;;;;;;20741430;28;20391;-75
2022/10/23 04:50:24;;;;;;;0.93;0.80;;;19.40;57.30;;;;;;20764677;28;20041;-74
2022/10/23 05:00:59;;;;;;;1.38;0.75;;;19.30;57.20;;;;;;20773461;28;20049;-73
2022/10/23 05:11:00;;;;;;;1.02;0.60;;;19.30;57.20;;;;;;20786481;28;20052;-75
2022/10/23 05:21:09;;;;;;;1.48;0.70;;;19.30;57.20;;;;;;20793856;28;20056;-76
2022/10/23 05:31:14;;;;;;;0.85;0.57;;;19.30;57.20;;;;;;20778716;28;20044;-74
2022/10/23 05:41:17;;;;;;;0.93;0.60;;;19.30;57.30;;;;;;20770944;28;20462;-76
2022/10/23 05:51:21;;;;;;;1.45;0.77;;;19.20;57.20;;;;;;20795680;28;20053;-75
2022/10/23 06:01:27;;;;;;;1.92;0.60;;;19.20;57.20;;;;;;20741159;28;20086;-73
2022/10/23 06:11:33;;;;;;;;;;;19.20;57.20;;;;;;20756745;28;20415;-73
2022/10/23 06:21:41;;;;;;;0.60;0.60;;;19.20;57.20;;;;;;20795114;28;19924;-74
2022/10/23 06:31:43;;;;;;;1.75;0.70;;;19.20;57.20;;;;;;20786299;28;20480;-73
2022/10/23 06:41:47;;;;;;;0.73;0.60;;;19.10;57.20;;;;;;20740409;28;20041;-73
2022/10/23 06:52:08;;;;;;;0.95;0.70;;;19.10;57.20;;;;;;20771407;28;20469;-72
2022/10/23 07:02:09;;;;;;;1.10;0.70;;;19.10;57.30;;;;;;20777210;28;20395;-73
2022/10/23 07:12:10;;;;;;;1.65;0.80;;;19.10;57.30;;;;;;20759231;28;20057;-73
2022/10/23 07:22:19;;;;;;;0.98;0.57;;;19.10;57.40;;;;;;20726977;28;20099;-73
2022/10/23 07:32:26;;;;;;;4.55;0.60;;;19.00;57.30;;;;;;20737799;28;20038;-76
2022/10/23 07:42:37;;;;;;;1.08;0.63;;;19.00;57.40;;;;;;20766100;28;20064;-80
2022/10/23 07:52:38;;;;;;;0.70;0.60;;;19.00;57.50;;;;;;20760173;28;20068;-75
2022/10/23 08:02:48;;;;;;;1.05;0.60;;;19.00;57.60;;;;;;20774208;28;20480;-77
2022/10/23 08:12:50;;;;;;;0.50;0.50;;;19.00;57.60;;;;;;20737706;28;20042;-81
2022/10/23 08:22:55;;;;;;;0.40;0.40;;;19.00;57.60;;;;;;20766852;28;20454;-77
2022/10/23 08:33:01;;;;;;;1.30;0.68;;;19.00;57.70;;;;;;20772341;28;20040;-78
2022/10/23 08:43:05;;;;;;;0.57;0.55;;;19.00;57.70;;;;;;20800091;28;20037;-80
2022/10/23 08:53:49;;;;;;;0.45;0.30;;;19.00;57.70;;;;;;20788728;28;20037;-80
2022/10/23 09:03:57;;;;;;;1.08;0.68;;;19.00;57.70;;;;;;20795570;28;20503;-79
2022/10/23 09:14:42;;;;;;;0.98;0.60;;;19.00;57.80;;;;;;20761014;28;20112;-81
2022/10/23 09:24:44;;;;;;;1.15;0.52;;;19.00;57.80;;;;;;20793464;28;20038;-75
2022/10/23 09:34:53;;;;;;;0.70;0.50;;;19.00;57.80;;;;;;20816028;28;20025;-76
2022/10/23 09:44:54;;;;;;;0.90;0.60;;;18.90;57.80;;;;;;20751891;28;20068;-78
2022/10/23 09:54:57;;;;;;;0.65;0.43;;;19.00;57.80;;;;;;20786014;28;20075;-77
2022/10/23 10:05:19;;;;;;;0.93;0.50;;;18.90;57.80;;;;;;20771404;28;20040;-80
2022/10/23 10:15:26;;;;;;;0.30;0.30;;;19.00;57.80;;;;;;20761638;28;20034;-75
2022/10/23 10:25:37;;;;;;;0.52;0.50;;;19.00;57.70;;;;;;20745915;28;20041;-78
2022/10/23 10:36:07;;;;;;;0.60;0.50;;;19.00;57.60;;;;;;20782557;28;20034;-83
2022/10/23 10:46:17;;;;;;;1.20;0.50;;;19.10;57.50;;;;;;20761218;28;20128;-83
2022/10/23 10:56:18;;;;;;;0.90;0.50;;;19.10;57.40;;;;;;20792526;28;20055;-87
2022/10/23 11:06:20;;;;;;;3.08;0.73;;;19.20;57.30;;;;;;20765553;28;20045;-81
2022/10/23 11:16:27;;;;;;;1.80;0.40;;;19.20;57.30;;;;;;20753270;28;20441;-80
2022/10/23 11:27:01;;;;;;;3.90;0.80;;;19.30;57.50;;;;;;20742685;28;20037;-79
2022/10/23 11:37:03;;;;;;;10.65;1.73;;;19.30;57.70;;;;;;20805522;28;20388;-78
2022/10/23 11:47:27;;;;;;;0.60;0.40;;;19.40;57.70;;;;;;20774479;28;20531;-80
2022/10/23 11:57:29;;;;;;;1.10;0.60;;;19.40;57.50;;;;;;20793066;28;20034;-91
2022/10/23 12:07:32;;;;;;;0.98;0.50;;;19.40;57.20;;;;;;20793609;28;20482;-86
2022/10/23 12:17:36;;;;;;;0.63;0.40;;;19.40;57.20;;;;;;20802531;28;20090;-84
2022/10/23 12:27:45;;;;;;;1.00;0.50;;;19.50;57.70;;;;;;20805953;28;20047;-85
2022/10/23 12:38:00;;;;;;;1.42;0.70;;;19.50;56.90;;;;;;20771389;28;20407;-82
2022/10/23 12:48:01;;;;;;;3.13;0.70;;;19.50;56.80;;;;;;20833585;28;20491;-86
2022/10/23 12:58:01;;;;;;;1.85;1.02;;;19.50;56.70;;;;;;20780720;28;20067;-86
2022/10/23 13:08:03;;;;;;;1.10;0.50;;;19.60;56.60;;;;;;20783160;28;20122;-84
2022/10/23 13:18:16;;;;;;;0.40;0.40;;;19.60;56.50;;;;;;20757527;28;20044;-87
2022/10/23 13:28:24;;;;;;;1.42;0.47;;;19.70;56.40;;;;;;20801665;28;20464;-84
2022/10/23 13:39:01;;;;;;;1.05;0.40;;;19.60;56.30;;;;;;20784600;28;20048;-83
2022/10/23 13:49:01;;;;;;;1.30;0.50;;;19.70;56.30;;;;;;20784621;28;20384;-86
2022/10/23 13:59:05;;;;;;;1.38;0.40;;;19.70;56.20;;;;;;20763011;28;20427;-86
2022/10/23 14:09:13;;;;;;;0.52;0.38;;;19.70;56.80;;;;;;20771143;28;20487;-85
2022/10/23 14:19:18;;;;;;;1.10;0.40;;;19.70;56.10;;;;;;20758027;28;20040;-84
2022/10/23 14:29:18;;;;;;;1.20;0.30;;;19.70;56.10;;;;;;20815368;28;20124;-85
2022/10/23 14:39:19;;;;;;;0.57;0.25;;;19.70;56.10;;;;;;20778338;28;20072;-86
2022/10/23 14:49:22;;;;;;;0.38;0.30;;;19.70;56.10;;;;;;20773547;28;20076;-88
2022/10/23 14:59:23;;;;;;;0.32;0.32;;;19.70;56.10;;;;;;20801325;28;20091;-87
2022/10/23 15:09:24;;;;;;;1.20;0.52;;;19.70;56.10;;;;;;20777997;28;20033;-85
2022/10/23 15:19:26;;;;;;;0.75;0.50;;;19.70;56.20;;;;;;20812923;28;20041;-85
2022/10/23 15:29:28;;;;;;;0.82;0.40;;;19.60;56.80;;;;;;20787473;28;20105;-86
2022/10/23 15:39:34;;;;;;;0.65;0.40;;;19.70;56.20;;;;;;20787447;28;20037;-87
2022/10/23 15:49:35;;;;;;;0.60;0.30;;;19.60;56.20;;;;;;20789988;28;20037;-86
2022/10/23 15:59:36;;;;;;;0.20;0.20;;;19.60;56.20;;;;;;20747710;28;20049;-86
2022/10/23 16:09:36;;;;;;;0.63;0.22;;;19.60;56.30;;;;;;20800894;28;20037;-85
2022/10/23 16:19:37;;;;;;;1.13;0.30;;;19.60;56.90;;;;;;20793558;28;20498;-85
2022/10/23 16:29:38;;;;;;;0.95;0.30;;;19.60;56.30;;;;;;20781197;28;20037;-84
2022/10/23 16:39:39;;;;;;;0.47;0.30;;;19.60;56.30;;;;;;20786580;28;20364;-85
2022/10/23 16:49:58;;;;;;;1.40;0.32;;;19.60;56.30;;;;;;20778949;28;20064;-86
2022/10/23 17:00:00;;;;;;;0.20;0.17;;;19.60;56.40;;;;;;20786682;28;20561;-86
2022/10/23 17:10:00;;;;;;;0.47;0.30;;;19.50;56.40;;;;;;20777282;28;20072;-86
2022/10/23 17:20:03;;;;;;;0.40;0.30;;;19.50;56.40;;;;;;20789676;28;20046;-88
2022/10/23 17:30:08;;;;;;;0.52;0.35;;;19.50;56.40;;;;;;20775249;28;20555;-86
2022/10/23 17:40:09;;;;;;;0.50;0.23;;;19.50;56.50;;;;;;20783893;28;20515;-87
2022/10/23 17:50:12;;;;;;;0.60;0.40;;;19.50;56.50;;;;;;20773355;28;20144;-86
2022/10/23 18:00:15;;;;;;;0.20;0.20;;;19.50;56.50;;;;;;20789055;28;20037;-84
2022/10/23 18:10:16;;;;;;;0.25;0.25;;;19.50;56.50;;;;;;20761421;28;20045;-86
2022/10/23 18:20:18;;;;;;;0.70;0.37;;;19.50;56.60;;;;;;20779164;28;20464;-87
2022/10/23 18:30:19;;;;;;;0.63;0.30;;;19.50;56.60;;;;;;20738730;28;20326;-85
2022/10/23 18:40:20;;;;;;;0.40;0.30;;;19.50;56.70;;;;;;20788050;28;20029;-86
2022/10/23 18:50:22;;;;;;;0.50;0.30;;;19.50;56.70;;;;;;20759235;28;20049;-87
2022/10/23 19:00:24;;;;;;;1.38;0.30;;;19.50;56.80;;;;;;20808304;28;20384;-87
2022/10/23 19:10:27;;;;;;;0.75;0.40;;;19.40;56.80;;;;;;20783288;28;20466;-88
2022/10/23 19:20:30;;;;;;;0.55;0.20;;;19.50;56.90;;;;;;20759668;28;20064;-85
2022/10/23 19:30:33;;;;;;;0.30;0.30;;;19.40;56.90;;;;;;20764468;28;20085;-87
2022/10/23 19:40:33;;;;;;;1.23;0.38;;;19.40;57.00;;;;;;20795553;28;20041;-88
2022/10/23 19:50:36;;;;;;;1.27;0.40;;;19.40;57.00;;;;;;20765945;28;20124;-87
2022/10/23 20:00:38;;;;;;;1.20;0.40;;;19.40;57.10;;;;;;20803094;28;20301;-88
2022/10/23 20:10:41;;;;;;;0.25;0.25;;;19.40;57.10;;;;;;20807123;28;20084;-88
2022/10/23 20:20:42;;;;;;;0.55;0.30;;;19.40;57.20;;;;;;20783712;28;20038;-88
2022/10/23 20:30:44;;;;;;;0.43;0.30;;;19.30;57.20;;;;;;20804106;28;20048;-87
2022/10/23 20:40:44;;;;;;;0.47;0.30;;;19.30;57.20;;;;;;20806971;28;20459;-87
2022/10/23 20:50:46;;;;;;;0.90;0.30;;;19.30;57.40;;;;;;20776556;28;20037;-88
2022/10/23 21:00:48;;;;;;;0.43;0.32;;;19.30;57.40;;;;;;20796877;28;20037;-85
2022/10/23 21:10:50;;;;;;;0.50;0.40;;;19.30;57.40;;;;;;20789106;28;20789;-84
2022/10/23 21:20:52;;;;;;;0.50;0.40;;;19.30;57.50;;;;;;20781350;28;20033;-86
2022/10/23 21:30:54;;;;;;;0.40;0.30;;;19.30;57.50;;;;;;20816891;28;20370;-89
2022/10/23 21:41:06;;;;;;;0.68;0.40;;;19.30;57.60;;;;;;20801268;28;20033;-87
2022/10/23 21:51:10;;;;;;;0.63;0.40;;;19.30;57.70;;;;;;20792611;28;20044;-88
2022/10/23 22:01:11;;;;;;;0.97;0.37;;;19.30;57.70;;;;;;20800259;28;20076;-86
2022/10/23 22:11:13;;;;;;;0.55;0.32;;;19.30;57.70;;;;;;20757922;28;20145;-88
2022/10/23 22:21:17;;;;;;;0.40;0.30;;;19.20;57.70;;;;;;20773924;28;20077;-87
2022/10/23 22:31:21;;;;;;;0.57;0.30;;;19.20;57.70;;;;;;20741715;28;20092;-87
2022/10/23 22:41:21;;;;;;;0.35;0.35;;;19.20;57.80;;;;;;20773844;28;20029;-89
2022/10/23 22:51:24;;;;;;;0.45;0.40;;;19.20;57.90;;;;;;20756886;28;20047;-89
2022/10/23 23:01:32;;;;;;;0.70;0.50;;;19.10;57.90;;;;;;20771372;28;20480;-88
2022/10/23 23:11:32;;;;;;;0.30;0.30;;;19.20;58.10;;;;;;20757470;28;20072;-88
2022/10/23 23:21:33;;;;;;;1.00;0.40;;;19.20;58.10;;;;;;20785053;28;20049;-87
2022/10/23 23:31:34;;;;;;;0.43;0.32;;;19.20;58.20;;;;;;20797975;28;20033;-87
2022/10/23 23:41:38;;;;;;;1.27;0.80;;;19.10;58.20;;;;;;20785855;28;20636;-88
2022/10/23 23:51:38;;;;;;;0.95;0.60;;;19.20;58.40;;;;;;20791334;28;20038;-88
